Time;durP1;ratioP1;P1;durP2;ratioP2;P2;SDS_P1;SDS_P2;PMS_P1;PMS_P2;Temp;Humidity;BMP_temperature;BMP_pressure;BME280_temperature;BME280_humidity;BME280_pressure;Samples;Min_cycle;Max_cycle;Signal;HPM_P1;HPM_P2
2022/12/18 00:02:18;;;;;;;19.97;13.97;;;;;;;;;;5058182;28;20569;-70
2022/12/18 00:04:44;;;;;;;22.03;13.73;;;;;;;;;;5078457;28;20180;-70
2022/12/18 00:07:10;;;;;;;23.73;13.37;;;;;;;;;;5078561;28;20202;-70
2022/12/18 00:09:36;;;;;;;23.27;14.27;;;;;;;;;;5078188;28;20176;-69
2022/12/18 00:12:02;;;;;;;21.63;13.47;;;;;;;;;;5077898;28;20694;-70
2022/12/18 00:14:27;;;;;;;20.27;13.97;;;;;;;;;;5078386;28;20179;-68
2022/12/18 00:16:53;;;;;;;20.73;13.80;;;;;;;;;;5059790;28;20185;-69
2022/12/18 00:19:19;;;;;;;22.40;14.23;;;;;;;;;;5078132;28;20179;-69
2022/12/18 00:21:45;;;;;;;20.40;13.93;;;;;;;;;;5077729;28;20186;-70
2022/12/18 00:24:12;;;;;;;21.33;13.40;;;;;;;;;;5059655;28;20187;-70
2022/12/18 00:26:39;;;;;;;20.63;12.90;;;;;;;;;;5077395;28;20267;-70
2022/12/18 00:29:11;;;;;;;19.83;12.97;;;;;;;;;;5077698;28;20792;-69
2022/12/18 00:31:38;;;;;;;20.30;13.47;;;;;;;;;;5077490;28;20454;-70
2022/12/18 00:34:04;;;;;;;19.10;12.93;;;;;;;;;;5059581;28;20455;-70
2022/12/18 00:36:31;;;;;;;18.17;12.30;;;;;;;;;;5077523;28;20410;-70
2022/12/18 00:38:58;;;;;;;21.20;13.03;;;;;;;;;;5077567;28;20423;-70
2022/12/18 00:44:11;;;;;;;20.27;12.40;;;;;;;;;;5078009;28;20857;-70
2022/12/18 00:46:37;;;;;;;24.73;12.37;;;;;;;;;;5077133;28;20408;-69
2022/12/18 00:49:03;;;;;;;21.70;12.47;;;;;;;;;;5059441;28;20914;-69
2022/12/18 00:51:28;;;;;;;18.83;11.60;;;;;;;;;;5077216;28;20260;-70
2022/12/18 00:53:54;;;;;;;16.90;11.80;;;;;;;;;;5059423;28;20424;-70
2022/12/18 00:56:20;;;;;;;17.70;11.67;;;;;;;;;;5077282;28;20350;-70
2022/12/18 00:58:46;;;;;;;17.77;11.50;;;;;;;;;;5059539;28;20418;-70
2022/12/18 01:01:12;;;;;;;16.93;12.43;;;;;;;;;;5082215;28;20198;-70
2022/12/18 01:03:38;;;;;;;16.37;11.57;;;;;;;;;;5077185;28;20221;-69
2022/12/18 01:06:08;;;;;;;18.00;11.23;;;;;;;;;;5077920;28;20414;-69
2022/12/18 01:08:34;;;;;;;17.23;11.20;;;;;;;;;;5076970;28;20213;-69
2022/12/18 01:11:01;;;;;;;24.47;11.40;;;;;;;;;;5077446;28;20445;-70
2022/12/18 01:13:27;;;;;;;19.97;12.90;;;;;;;;;;5076390;28;20430;-69
2022/12/18 01:15:53;;;;;;;17.67;11.77;;;;;;;;;;5077218;28;20447;-69
2022/12/18 01:18:19;;;;;;;21.03;12.57;;;;;;;;;;5077098;28;20411;-68
2022/12/18 01:20:45;;;;;;;18.37;13.07;;;;;;;;;;5064987;28;20183;-69
2022/12/18 01:23:11;;;;;;;16.70;11.97;;;;;;;;;;5060360;28;20216;-70
2022/12/18 01:25:37;;;;;;;20.80;12.23;;;;;;;;;;5076907;28;20185;-69
2022/12/18 01:28:03;;;;;;;17.23;11.97;;;;;;;;;;5076973;28;20679;-70
2022/12/18 01:30:29;;;;;;;19.90;12.00;;;;;;;;;;5076307;28;20683;-71
2022/12/18 01:32:55;;;;;;;18.40;11.60;;;;;;;;;;5076397;28;20432;-70
2022/12/18 01:35:21;;;;;;;16.53;11.53;;;;;;;;;;5076179;28;20411;-70
2022/12/18 01:37:47;;;;;;;17.73;11.63;;;;;;;;;;5076438;28;20180;-70
2022/12/18 01:40:13;;;;;;;15.87;11.47;;;;;;;;;;5076427;28;20179;-70
2022/12/18 01:42:39;;;;;;;18.53;11.60;;;;;;;;;;5076447;28;20279;-70
2022/12/18 01:45:05;;;;;;;17.00;11.70;;;;;;;;;;5076501;28;20913;-68
2022/12/18 01:47:34;;;;;;;17.47;11.13;;;;;;;;;;5076281;28;20967;-69
2022/12/18 01:50:02;;;;;;;17.47;10.97;;;;;;;;;;5058440;28;20424;-70
2022/12/18 01:52:29;;;;;;;15.93;11.03;;;;;;;;;;5076945;28;20617;-70
2022/12/18 01:54:55;;;;;;;17.33;11.00;;;;;;;;;;5076105;28;20497;-70
2022/12/18 01:57:22;;;;;;;16.50;11.17;;;;;;;;;;5076231;28;20416;-69
2022/12/18 01:59:51;;;;;;;16.83;11.03;;;;;;;;;;5076657;28;20423;-69
2022/12/18 02:02:18;;;;;;;18.10;11.63;;;;;;;;;;5076295;28;20463;-69
2022/12/18 02:04:44;;;;;;;19.23;11.63;;;;;;;;;;5076320;28;20420;-69
2022/12/18 02:07:28;;;;;;;17.87;11.27;;;;;;;;;;5076025;28;20468;-68
2022/12/18 02:09:54;;;;;;;20.87;11.80;;;;;;;;;;5076114;28;20752;-69
2022/12/18 02:12:21;;;;;;;20.00;12.50;;;;;;;;;;5076067;28;20484;-69
2022/12/18 02:15:00;;;;;;;18.13;11.83;;;;;;;;;;5075963;28;20213;-70
2022/12/18 02:17:53;;;;;;;18.07;11.07;;;;;;;;;;5075849;28;20406;-69
2022/12/18 02:20:19;;;;;;;17.60;11.83;;;;;;;;;;5073149;28;20530;-69
2022/12/18 02:23:05;;;;;;;19.57;12.17;;;;;;;;;;5075773;28;20461;-69
2022/12/18 02:25:49;;;;;;;19.13;11.00;;;;;;;;;;5064514;28;20208;-69
2022/12/18 02:28:17;;;;;;;20.57;12.13;;;;;;;;;;5075621;28;20516;-69
2022/12/18 02:30:43;;;;;;;15.47;10.90;;;;;;;;;;5076056;28;20918;-68
2022/12/18 02:33:11;;;;;;;17.03;11.60;;;;;;;;;;5075602;28;20506;-69
2022/12/18 02:35:39;;;;;;;18.60;11.53;;;;;;;;;;5075561;28;20406;-69
2022/12/18 02:38:05;;;;;;;16.27;10.97;;;;;;;;;;5075384;28;20780;-70
2022/12/18 02:40:32;;;;;;;15.77;11.83;;;;;;;;;;5057259;28;20424;-68
2022/12/18 02:43:12;;;;;;;17.70;12.00;;;;;;;;;;5077929;28;20977;-69
2022/12/18 02:45:47;;;;;;;17.00;12.23;;;;;;;;;;5059467;28;20506;-70
2022/12/18 02:48:13;;;;;;;21.43;11.90;;;;;;;;;;5076054;28;20496;-70
2022/12/18 02:50:44;;;;;;;18.53;11.57;;;;;;;;;;5076482;28;20897;-71
2022/12/18 02:53:21;;;;;;;16.97;11.03;;;;;;;;;;5076868;28;20480;-70
2022/12/18 02:55:50;;;;;;;20.57;11.97;;;;;;;;;;5076937;28;20785;-70
2022/12/18 02:58:18;;;;;;;20.87;12.70;;;;;;;;;;5077651;28;20406;-69
2022/12/18 03:01:00;;;;;;;17.87;11.90;;;;;;;;;;5059119;28;20458;-71
2022/12/18 03:03:32;;;;;;;18.77;12.03;;;;;;;;;;5075252;28;20465;-70
2022/12/18 03:06:19;;;;;;;16.57;10.60;;;;;;;;;;5076317;28;20474;-69
2022/12/18 03:08:47;;;;;;;20.07;12.17;;;;;;;;;;5076229;28;20447;-69
2022/12/18 03:11:14;;;;;;;15.30;12.00;;;;;;;;;;5076694;28;20438;-69
2022/12/18 03:13:48;;;;;;;18.67;12.07;;;;;;;;;;5075011;28;20432;-70
2022/12/18 03:16:21;;;;;;;17.00;12.03;;;;;;;;;;5075008;28;20792;-69
2022/12/18 03:18:49;;;;;;;18.50;11.83;;;;;;;;;;5074771;28;20856;-70
2022/12/18 03:21:16;;;;;;;19.93;11.87;;;;;;;;;;5075406;28;20417;-70
2022/12/18 03:23:45;;;;;;;16.60;11.23;;;;;;;;;;5073443;28;20424;-70
2022/12/18 03:26:13;;;;;;;21.53;13.20;;;;;;;;;;5073529;28;20771;-70
2022/12/18 03:28:42;;;;;;;21.10;13.00;;;;;;;;;;5073972;28;20494;-70
2022/12/18 03:31:09;;;;;;;16.80;11.90;;;;;;;;;;5074202;28;20778;-70
2022/12/18 03:33:40;;;;;;;17.83;12.33;;;;;;;;;;5078604;28;20493;-70
2022/12/18 03:36:06;;;;;;;17.37;12.40;;;;;;;;;;5079740;28;20495;-69
2022/12/18 03:38:32;;;;;;;18.83;12.37;;;;;;;;;;5077422;28;20463;-70
2022/12/18 03:40:58;;;;;;;17.93;12.13;;;;;;;;;;5073786;28;20419;-70
2022/12/18 03:43:24;;;;;;;19.50;12.37;;;;;;;;;;5073241;28;20438;-70
2022/12/18 03:45:54;;;;;;;16.83;12.00;;;;;;;;;;5055544;28;20651;-69
2022/12/18 03:48:26;;;;;;;19.20;12.60;;;;;;;;;;5073144;28;20203;-69
2022/12/18 03:51:02;;;;;;;19.83;12.70;;;;;;;;;;5055685;28;20488;-71
2022/12/18 03:53:50;;;;;;;16.63;11.23;;;;;;;;;;5073088;28;20516;-69
2022/12/18 03:56:17;;;;;;;15.90;11.30;;;;;;;;;;5073350;28;20410;-70
2022/12/18 03:58:44;;;;;;;16.90;10.77;;;;;;;;;;5073223;28;20494;-70
2022/12/18 04:01:12;;;;;;;17.93;11.60;;;;;;;;;;5055148;28;20519;-70
2022/12/18 04:03:39;;;;;;;18.03;12.07;;;;;;;;;;5073555;28;20540;-70
2022/12/18 04:06:06;;;;;;;16.67;11.60;;;;;;;;;;5073458;28;20565;-71
2022/12/18 04:08:32;;;;;;;17.73;11.63;;;;;;;;;;5073543;28;20467;-70
2022/12/18 04:10:58;;;;;;;15.53;10.77;;;;;;;;;;5055519;28;20424;-70
2022/12/18 04:13:25;;;;;;;15.13;10.53;;;;;;;;;;5073676;28;20800;-70
2022/12/18 04:15:51;;;;;;;15.43;10.67;;;;;;;;;;5055094;28;20188;-70
2022/12/18 04:18:17;;;;;;;15.77;10.77;;;;;;;;;;5074285;28;20501;-70
2022/12/18 04:20:43;;;;;;;15.37;10.53;;;;;;;;;;5073363;28;20458;-70
2022/12/18 04:23:09;;;;;;;12.93;9.70;;;;;;;;;;5055373;28;20203;-70
2022/12/18 04:25:35;;;;;;;14.87;11.03;;;;;;;;;;5055372;28;20182;-70
2022/12/18 04:28:01;;;;;;;15.33;10.73;;;;;;;;;;5055380;28;20246;-70
2022/12/18 04:30:27;;;;;;;17.00;10.67;;;;;;;;;;5073912;28;20179;-70
2022/12/18 04:32:52;;;;;;;13.97;10.17;;;;;;;;;;5073204;28;20208;-70
2022/12/18 04:35:18;;;;;;;13.23;9.57;;;;;;;;;;5073274;28;20182;-70
2022/12/18 04:37:44;;;;;;;14.73;10.60;;;;;;;;;;5073500;28;20176;-70
2022/12/18 04:40:11;;;;;;;14.20;9.73;;;;;;;;;;5055568;28;20419;-70
2022/12/18 04:42:37;;;;;;;14.67;10.10;;;;;;;;;;5097424;23;20242;-71
2022/12/18 04:45:03;;;;;;;15.07;9.77;;;;;;;;;;5093833;28;20776;-71
2022/12/18 04:47:29;;;;;;;14.00;9.50;;;;;;;;;;5094676;28;20264;-71
2022/12/18 04:49:55;;;;;;;13.67;9.87;;;;;;;;;;5079113;28;20938;-71
2022/12/18 04:52:21;;;;;;;14.00;9.73;;;;;;;;;;5079487;28;20197;-71
2022/12/18 04:54:47;;;;;;;14.87;10.33;;;;;;;;;;5080227;28;20183;-71
2022/12/18 04:57:13;;;;;;;14.63;8.90;;;;;;;;;;5100539;28;20665;-72
2022/12/18 04:59:38;;;;;;;14.37;9.33;;;;;;;;;;5079236;28;20191;-71
2022/12/18 05:02:04;;;;;;;14.23;9.43;;;;;;;;;;5097318;28;20274;-71
2022/12/18 05:04:30;;;;;;;15.33;9.87;;;;;;;;;;5097058;28;20232;-71
2022/12/18 05:06:56;;;;;;;12.67;8.93;;;;;;;;;;5078402;28;20263;-71
2022/12/18 05:09:23;;;;;;;15.03;10.00;;;;;;;;;;5078695;28;20298;-71
2022/12/18 05:11:49;;;;;;;19.23;13.27;;;;;;;;;;5078571;28;20693;-71
2022/12/18 05:14:15;;;;;;;17.77;12.03;;;;;;;;;;5097181;28;20415;-71
2022/12/18 05:16:41;;;;;;;17.83;12.30;;;;;;;;;;5096713;28;20183;-71
2022/12/18 05:19:07;;;;;;;16.83;12.30;;;;;;;;;;5096436;28;20462;-71
2022/12/18 05:21:33;;;;;;;16.10;11.77;;;;;;;;;;5078312;28;20174;-71
2022/12/18 05:23:59;;;;;;;16.83;11.43;;;;;;;;;;5078412;28;20439;-71
2022/12/18 05:26:25;;;;;;;16.57;12.20;;;;;;;;;;5096572;28;20177;-71
2022/12/18 05:28:51;;;;;;;16.37;11.67;;;;;;;;;;5078086;28;20682;-71
2022/12/18 05:31:17;;;;;;;19.37;14.03;;;;;;;;;;5078116;28;20424;-71
2022/12/18 05:33:43;;;;;;;16.83;12.50;;;;;;;;;;5096144;28;20190;-71
2022/12/18 05:36:10;;;;;;;21.07;15.13;;;;;;;;;;5096529;28;20185;-71
2022/12/18 05:38:38;;;;;;;19.27;13.73;;;;;;;;;;5096233;28;20411;-71
2022/12/18 05:41:04;;;;;;;21.07;15.13;;;;;;;;;;5096312;28;20409;-70
2022/12/18 05:43:30;;;;;;;17.03;11.87;;;;;;;;;;5097350;28;20482;-68
2022/12/18 05:45:57;;;;;;;15.30;11.00;;;;;;;;;;5079575;28;20421;-69
2022/12/18 05:48:23;;;;;;;14.50;10.30;;;;;;;;;;5077625;28;20585;-71
2022/12/18 05:50:50;;;;;;;12.80;9.43;;;;;;;;;;5096089;28;20456;-71
2022/12/18 05:53:17;;;;;;;13.27;9.90;;;;;;;;;;5077842;28;20431;-67
2022/12/18 05:55:44;;;;;;;11.67;9.20;;;;;;;;;;5077704;28;20418;-69
2022/12/18 05:58:10;;;;;;;13.13;9.10;;;;;;;;;;5096598;28;20454;-71
2022/12/18 06:00:41;;;;;;;12.43;9.07;;;;;;;;;;5102880;28;20416;-69
2022/12/18 06:03:08;;;;;;;12.47;9.07;;;;;;;;;;5115966;28;20462;-70
2022/12/18 06:05:41;;;;;;;12.37;9.00;;;;;;;;;;5098473;28;20410;-69
2022/12/18 06:08:07;;;;;;;10.37;8.43;;;;;;;;;;5091568;28;20453;-69
2022/12/18 06:10:33;;;;;;;12.87;9.27;;;;;;;;;;5102262;28;20423;-69
2022/12/18 06:12:59;;;;;;;13.17;8.37;;;;;;;;;;5081466;28;20201;-69
2022/12/18 06:15:25;;;;;;;14.23;9.93;;;;;;;;;;5080567;28;20416;-71
2022/12/18 06:17:51;;;;;;;12.30;8.53;;;;;;;;;;5098069;28;20925;-69
2022/12/18 06:20:17;;;;;;;12.27;9.33;;;;;;;;;;5079832;28;20182;-68
2022/12/18 06:22:43;;;;;;;12.67;8.67;;;;;;;;;;5079876;28;20249;-68
2022/12/18 06:25:09;;;;;;;14.47;9.70;;;;;;;;;;5097527;28;20405;-69
2022/12/18 06:27:35;;;;;;;14.03;9.87;;;;;;;;;;5097172;28;20196;-71
2022/12/18 06:30:01;;;;;;;13.83;10.93;;;;;;;;;;5096102;28;20418;-69
2022/12/18 06:32:27;;;;;;;16.43;10.33;;;;;;;;;;5080416;28;20201;-69
2022/12/18 06:34:55;;;;;;;13.33;10.40;;;;;;;;;;5077613;28;20423;-70
2022/12/18 06:37:21;;;;;;;14.93;10.23;;;;;;;;;;5095925;28;20423;-69
2022/12/18 06:39:47;;;;;;;16.23;8.80;;;;;;;;;;5077145;28;20519;-69
2022/12/18 06:42:13;;;;;;;11.90;8.77;;;;;;;;;;5095154;28;20268;-68
2022/12/18 06:44:39;;;;;;;11.63;8.20;;;;;;;;;;5095147;28;20509;-71
2022/12/18 06:47:05;;;;;;;14.80;8.80;;;;;;;;;;5076739;28;20294;-71
2022/12/18 06:49:31;;;;;;;12.93;9.13;;;;;;;;;;5095279;28;20206;-69
2022/12/18 06:51:57;;;;;;;14.53;9.43;;;;;;;;;;5094891;28;20909;-69
2022/12/18 06:54:22;;;;;;;14.40;9.10;;;;;;;;;;5076829;28;20297;-70
2022/12/18 06:56:48;;;;;;;14.10;9.30;;;;;;;;;;5076725;28;20183;-69
2022/12/18 06:59:15;;;;;;;16.37;9.07;;;;;;;;;;5076895;28;20175;-69
2022/12/18 07:01:41;;;;;;;13.77;8.70;;;;;;;;;;5076488;28;20664;-70
2022/12/18 07:04:07;;;;;;;13.10;8.87;;;;;;;;;;5077039;28;20472;-70
2022/12/18 07:06:33;;;;;;;12.00;9.30;;;;;;;;;;5095566;28;20185;-69
2022/12/18 07:08:59;;;;;;;12.73;8.80;;;;;;;;;;5095557;28;20553;-69
2022/12/18 07:11:25;;;;;;;14.10;9.53;;;;;;;;;;5076796;28;20409;-69
2022/12/18 07:13:52;;;;;;;12.33;9.07;;;;;;;;;;5077659;28;20267;-69
2022/12/18 07:16:20;;;;;;;14.20;9.37;;;;;;;;;;5095789;28;20188;-69
2022/12/18 07:18:45;;;;;;;15.87;9.47;;;;;;;;;;5078091;28;20417;-69
2022/12/18 07:21:13;;;;;;;14.53;10.50;;;;;;;;;;5098690;28;20418;-69
2022/12/18 07:23:39;;;;;;;12.63;9.33;;;;;;;;;;5095528;28;20203;-69
2022/12/18 07:26:06;;;;;;;14.13;10.37;;;;;;;;;;5077174;28;20422;-69
2022/12/18 07:28:32;;;;;;;15.13;10.80;;;;;;;;;;5094909;28;20495;-69
2022/12/18 07:30:59;;;;;;;16.90;11.23;;;;;;;;;;5077502;28;20414;-69
2022/12/18 07:33:25;;;;;;;15.00;11.10;;;;;;;;;;5095527;28;20512;-69
2022/12/18 07:35:51;;;;;;;13.13;10.67;;;;;;;;;;5077258;28;20448;-69
2022/12/18 07:38:17;;;;;;;13.53;9.63;;;;;;;;;;5095527;28;20780;-69
2022/12/18 07:40:43;;;;;;;15.10;10.47;;;;;;;;;;5095412;28;20230;-69
2022/12/18 07:43:09;;;;;;;13.83;9.67;;;;;;;;;;5095128;28;20739;-69
2022/12/18 07:45:35;;;;;;;15.57;10.10;;;;;;;;;;5077266;28;20185;-69
2022/12/18 07:48:01;;;;;;;16.20;9.50;;;;;;;;;;5095435;28;20671;-69
2022/12/18 07:50:27;;;;;;;15.63;10.40;;;;;;;;;;5095012;28;20649;-69
2022/12/18 07:52:53;;;;;;;14.43;9.87;;;;;;;;;;5094716;28;20243;-69
2022/12/18 07:55:19;;;;;;;15.00;9.93;;;;;;;;;;5095870;28;20430;-69
2022/12/18 07:57:45;;;;;;;13.37;8.93;;;;;;;;;;5096025;28;20187;-68
2022/12/18 08:00:11;;;;;;;14.30;9.80;;;;;;;;;;5096788;28;20186;-71
2022/12/18 08:02:37;;;;;;;15.17;10.03;;;;;;;;;;5096117;28;20437;-69
2022/12/18 08:05:03;;;;;;;12.20;8.77;;;;;;;;;;5103311;28;20479;-69
2022/12/18 08:07:29;;;;;;;12.93;10.20;;;;;;;;;;5113900;28;20228;-70
2022/12/18 08:09:55;;;;;;;12.30;9.53;;;;;;;;;;5095372;28;20419;-70
2022/12/18 08:12:21;;;;;;;13.00;9.00;;;;;;;;;;5095253;28;20466;-69
2022/12/18 08:14:47;;;;;;;13.87;8.63;;;;;;;;;;5112866;28;20183;-69
2022/12/18 08:17:13;;;;;;;13.13;9.80;;;;;;;;;;5084767;28;20188;-69
2022/12/18 08:19:39;;;;;;;13.63;9.50;;;;;;;;;;5080770;28;20189;-69
2022/12/18 08:22:05;;;;;;;12.83;8.43;;;;;;;;;;5097209;28;20202;-69
2022/12/18 08:24:31;;;;;;;13.03;9.07;;;;;;;;;;5099726;28;20409;-69
2022/12/18 08:26:57;;;;;;;10.83;8.27;;;;;;;;;;5080335;28;20215;-69
2022/12/18 08:29:23;;;;;;;10.63;8.33;;;;;;;;;;5080326;28;20211;-70
2022/12/18 08:31:49;;;;;;;13.30;8.80;;;;;;;;;;5098239;28;20195;-69
2022/12/18 08:34:15;;;;;;;12.07;7.63;;;;;;;;;;5098826;28;20455;-69
2022/12/18 08:36:41;;;;;;;12.03;8.47;;;;;;;;;;5079922;28;20834;-69
2022/12/18 08:39:07;;;;;;;11.43;8.20;;;;;;;;;;5080645;28;20273;-69
2022/12/18 08:41:33;;;;;;;12.40;8.03;;;;;;;;;;5098567;28;20176;-69
2022/12/18 08:46:43;;;;;;;11.57;8.33;;;;;;;;;;5098346;28;20171;-69
2022/12/18 08:49:10;;;;;;;11.40;7.30;;;;;;;;;;5097780;28;20418;-69
2022/12/18 08:51:37;;;;;;;10.03;6.90;;;;;;;;;;5079419;28;20420;-69
2022/12/18 08:54:03;;;;;;;14.13;9.10;;;;;;;;;;5097976;28;20403;-69
2022/12/18 08:56:29;;;;;;;13.13;8.00;;;;;;;;;;5100205;28;20406;-70
2022/12/18 08:58:56;;;;;;;23.23;12.23;;;;;;;;;;5097391;28;20488;-72
2022/12/18 09:01:22;;;;;;;17.27;10.77;;;;;;;;;;5097277;28;20426;-70
2022/12/18 09:03:49;;;;;;;14.97;9.43;;;;;;;;;;5079318;28;20498;-69
2022/12/18 09:06:16;;;;;;;13.57;8.67;;;;;;;;;;5079143;28;20479;-69
2022/12/18 09:08:42;;;;;;;11.83;8.20;;;;;;;;;;5079340;28;20543;-69
2022/12/18 09:11:16;;;;;;;12.17;7.47;;;;;;;;;;5096801;28;20453;-69
2022/12/18 09:13:42;;;;;;;11.60;7.47;;;;;;;;;;5096711;28;20423;-70
2022/12/18 09:16:08;;;;;;;9.73;7.47;;;;;;;;;;5097274;28;20427;-70
2022/12/18 09:18:34;;;;;;;10.10;6.87;;;;;;;;;;5078999;28;20181;-70
2022/12/18 09:21:00;;;;;;;9.77;7.30;;;;;;;;;;5096904;28;20446;-69
2022/12/18 09:23:25;;;;;;;12.73;8.30;;;;;;;;;;5096780;28;20242;-69
2022/12/18 09:25:51;;;;;;;10.97;7.53;;;;;;;;;;5096975;28;20257;-69
2022/12/18 09:28:19;;;;;;;13.13;8.20;;;;;;;;;;5079707;28;20209;-69
2022/12/18 09:30:47;;;;;;;12.73;7.67;;;;;;;;;;5097215;28;20179;-69
2022/12/18 09:33:13;;;;;;;10.17;7.33;;;;;;;;;;5096145;28;20424;-70
2022/12/18 09:35:40;;;;;;;10.50;7.60;;;;;;;;;;5078624;28;20411;-70
2022/12/18 09:38:06;;;;;;;10.63;8.13;;;;;;;;;;5097035;28;20853;-69
2022/12/18 09:40:37;;;;;;;12.10;7.80;;;;;;;;;;5096983;28;20422;-69
2022/12/18 09:43:05;;;;;;;12.10;8.17;;;;;;;;;;5115625;28;20543;-69
2022/12/18 09:45:34;;;;;;;11.10;7.80;;;;;;;;;;5097465;28;20428;-70
2022/12/18 09:48:00;;;;;;;18.37;10.40;;;;;;;;;;5112182;28;20546;-69
2022/12/18 09:50:40;;;;;;;12.07;8.57;;;;;;;;;;5103765;28;20593;-70
2022/12/18 09:53:15;;;;;;;11.03;7.67;;;;;;;;;;5101233;28;20426;-69
2022/12/18 09:55:46;;;;;;;11.83;8.77;;;;;;;;;;5099446;28;20812;-69
2022/12/18 09:58:21;;;;;;;13.80;9.17;;;;;;;;;;5099242;28;20396;-69
2022/12/18 10:00:47;;;;;;;11.63;8.53;;;;;;;;;;5098448;28;20414;-69
2022/12/18 10:03:14;;;;;;;11.73;7.90;;;;;;;;;;5097890;28;20488;-70
2022/12/18 10:05:44;;;;;;;12.47;9.27;;;;;;;;;;5079876;28;20181;-70
2022/12/18 10:08:14;;;;;;;11.73;9.03;;;;;;;;;;5077836;28;20463;-71
2022/12/18 10:10:49;;;;;;;11.27;8.40;;;;;;;;;;5095681;28;20410;-70
2022/12/18 10:13:25;;;;;;;13.13;8.20;;;;;;;;;;5077769;28;20442;-70
2022/12/18 10:16:09;;;;;;;11.07;8.30;;;;;;;;;;5079490;28;20460;-71
2022/12/18 10:18:53;;;;;;;11.53;9.13;;;;;;;;;;5098169;28;20403;-70
2022/12/18 10:21:22;;;;;;;12.10;8.53;;;;;;;;;;5097945;28;20403;-70
2022/12/18 10:23:53;;;;;;;12.23;8.03;;;;;;;;;;5079716;28;20424;-70
2022/12/18 10:26:19;;;;;;;11.23;7.83;;;;;;;;;;5098053;28;20388;-70
2022/12/18 10:28:46;;;;;;;11.40;9.00;;;;;;;;;;5096609;28;20458;-69
2022/12/18 10:31:16;;;;;;;13.13;8.63;;;;;;;;;;5096408;28;20411;-69
2022/12/18 10:33:42;;;;;;;12.97;8.73;;;;;;;;;;5077437;28;20802;-70
2022/12/18 10:36:08;;;;;;;12.43;8.67;;;;;;;;;;5095242;28;20410;-70
2022/12/18 10:38:34;;;;;;;12.70;8.37;;;;;;;;;;5095527;28;20264;-70
2022/12/18 10:41:18;;;;;;;12.70;8.77;;;;;;;;;;5095825;28;20204;-71
2022/12/18 10:43:45;;;;;;;12.57;8.43;;;;;;;;;;5076891;28;20451;-71
2022/12/18 10:46:11;;;;;;;11.97;8.50;;;;;;;;;;5094285;28;20879;-71
2022/12/18 10:48:41;;;;;;;12.97;7.63;;;;;;;;;;5077065;28;20459;-71
2022/12/18 10:51:07;;;;;;;10.70;7.93;;;;;;;;;;5095351;28;20238;-69
2022/12/18 10:53:35;;;;;;;9.97;7.63;;;;;;;;;;5094910;28;20467;-72
2022/12/18 10:56:03;;;;;;;11.50;7.77;;;;;;;;;;5094837;28;20407;-71
2022/12/18 10:58:33;;;;;;;13.10;8.37;;;;;;;;;;5076761;28;20418;-71
2022/12/18 11:01:08;;;;;;;12.30;8.07;;;;;;;;;;5076410;28;20444;-71
2022/12/18 11:03:39;;;;;;;11.50;7.97;;;;;;;;;;5094748;28;20491;-71
2022/12/18 11:06:08;;;;;;;14.53;9.40;;;;;;;;;;5094477;28;20469;-71
2022/12/18 11:08:34;;;;;;;12.27;8.33;;;;;;;;;;5095069;28;20588;-71
2022/12/18 11:11:00;;;;;;;10.20;7.93;;;;;;;;;;5076212;28;20422;-71
2022/12/18 11:13:27;;;;;;;12.73;8.83;;;;;;;;;;5095164;28;20462;-71
2022/12/18 11:15:53;;;;;;;12.17;8.90;;;;;;;;;;5094567;28;20457;-71
2022/12/18 11:18:23;;;;;;;14.63;10.67;;;;;;;;;;5094711;28;20415;-71
2022/12/18 11:20:54;;;;;;;13.20;8.83;;;;;;;;;;5095596;28;20178;-71
2022/12/18 11:23:22;;;;;;;11.60;8.63;;;;;;;;;;5094435;28;20431;-71
2022/12/18 11:25:53;;;;;;;10.70;8.20;;;;;;;;;;5076327;28;20422;-71
2022/12/18 11:28:37;;;;;;;11.83;8.50;;;;;;;;;;5094393;28;20822;-71
2022/12/18 11:31:12;;;;;;;14.43;8.27;;;;;;;;;;5076525;28;20765;-71
2022/12/18 11:33:39;;;;;;;13.47;8.53;;;;;;;;;;5094604;28;20914;-71
2022/12/18 11:36:08;;;;;;;12.57;8.60;;;;;;;;;;5094523;28;20450;-71
2022/12/18 11:38:36;;;;;;;13.17;8.60;;;;;;;;;;5076595;28;20422;-71
2022/12/18 11:41:10;;;;;;;13.43;9.03;;;;;;;;;;5094853;28;20411;-69
2022/12/18 11:43:45;;;;;;;11.43;8.33;;;;;;;;;;5094793;28;20443;-69
2022/12/18 11:46:15;;;;;;;14.27;9.10;;;;;;;;;;5094693;28;20456;-69
2022/12/18 11:49:04;;;;;;;11.27;8.53;;;;;;;;;;5076728;28;20508;-69
2022/12/18 11:51:36;;;;;;;12.27;9.27;;;;;;;;;;5095494;28;20445;-70
2022/12/18 11:54:02;;;;;;;13.03;8.87;;;;;;;;;;5077084;28;20616;-70
2022/12/18 11:56:39;;;;;;;13.30;8.70;;;;;;;;;;5095964;28;20461;-70
2022/12/18 11:59:14;;;;;;;13.40;8.63;;;;;;;;;;5098806;28;20415;-70
2022/12/18 12:01:46;;;;;;;10.90;8.40;;;;;;;;;;5098705;28;20760;-70
2022/12/18 12:04:37;;;;;;;13.77;9.27;;;;;;;;;;5081543;28;20430;-71
2022/12/18 12:07:10;;;;;;;15.93;9.50;;;;;;;;;;5080830;28;20468;-70
2022/12/18 12:09:51;;;;;;;12.63;8.93;;;;;;;;;;5100037;28;20399;-70
2022/12/18 12:12:45;;;;;;;11.07;8.40;;;;;;;;;;5098906;28;20430;-70
2022/12/18 12:15:35;;;;;;;13.20;9.73;;;;;;;;;;5099181;28;20387;-70
2022/12/18 12:18:20;;;;;;;15.10;10.20;;;;;;;;;;5090938;28;20466;-70
2022/12/18 12:21:09;;;;;;;15.53;9.67;;;;;;;;;;5099029;28;20943;-70
2022/12/18 12:23:35;;;;;;;14.53;10.93;;;;;;;;;;5090131;28;20492;-70
2022/12/18 12:26:09;;;;;;;15.63;10.03;;;;;;;;;;5080708;28;20419;-70
2022/12/18 12:28:54;;;;;;;14.57;9.10;;;;;;;;;;5080294;28;20201;-70
2022/12/18 12:31:32;;;;;;;14.37;9.53;;;;;;;;;;5098635;28;20399;-71
2022/12/18 12:34:15;;;;;;;14.37;9.17;;;;;;;;;;5079777;28;20499;-70
2022/12/18 12:36:49;;;;;;;15.23;10.00;;;;;;;;;;5080229;28;20400;-70
2022/12/18 12:39:18;;;;;;;12.97;9.40;;;;;;;;;;5079618;28;20495;-70
2022/12/18 12:44:36;;;;;;;12.70;8.67;;;;;;;;;;5098320;28;20437;-70
2022/12/18 12:47:06;;;;;;;14.63;10.60;;;;;;;;;;5098224;28;20399;-70
2022/12/18 12:49:33;;;;;;;20.90;14.13;;;;;;;;;;5098598;28;20388;-69
2022/12/18 12:52:04;;;;;;;15.20;10.83;;;;;;;;;;5079558;28;20514;-70
2022/12/18 12:54:32;;;;;;;14.03;9.43;;;;;;;;;;5097845;28;20864;-70
2022/12/18 12:57:01;;;;;;;13.60;10.37;;;;;;;;;;5098977;28;20407;-70
2022/12/18 12:59:35;;;;;;;14.57;9.80;;;;;;;;;;5097886;28;20818;-70
2022/12/18 13:02:17;;;;;;;15.07;9.87;;;;;;;;;;5097816;28;20437;-70
2022/12/18 13:04:48;;;;;;;15.33;9.97;;;;;;;;;;5097349;28;20398;-70
2022/12/18 13:07:33;;;;;;;13.63;10.00;;;;;;;;;;5097666;28;20445;-70
2022/12/18 13:10:13;;;;;;;17.63;10.83;;;;;;;;;;5078705;28;20915;-70
2022/12/18 13:12:59;;;;;;;13.13;9.93;;;;;;;;;;5097296;28;20454;-70
2022/12/18 13:15:37;;;;;;;20.17;13.47;;;;;;;;;;5097394;28;20399;-70
2022/12/18 13:18:06;;;;;;;16.03;12.47;;;;;;;;;;5079464;28;20415;-70
2022/12/18 13:20:34;;;;;;;15.97;11.10;;;;;;;;;;5079661;28;20426;-70
2022/12/18 13:22:59;;;;;;;14.10;10.20;;;;;;;;;;5079402;28;20997;-70
2022/12/18 13:25:30;;;;;;;14.60;10.67;;;;;;;;;;5079425;28;20502;-69
2022/12/18 13:27:59;;;;;;;14.13;11.13;;;;;;;;;;5097202;28;20204;-70
2022/12/18 13:30:48;;;;;;;15.13;10.63;;;;;;;;;;5098238;28;20407;-70
2022/12/18 13:33:14;;;;;;;16.67;10.73;;;;;;;;;;5090114;28;20681;-70
2022/12/18 13:35:41;;;;;;;17.47;11.37;;;;;;;;;;5079324;28;20418;-70
2022/12/18 13:38:26;;;;;;;15.50;11.53;;;;;;;;;;5097110;28;20411;-70
2022/12/18 13:40:55;;;;;;;16.27;11.43;;;;;;;;;;5096811;28;20495;-70
2022/12/18 13:43:21;;;;;;;15.87;10.30;;;;;;;;;;5097805;28;20500;-70
2022/12/18 13:45:59;;;;;;;16.73;12.10;;;;;;;;;;5080679;28;20419;-71
2022/12/18 13:48:26;;;;;;;16.30;11.80;;;;;;;;;;5080766;28;20204;-70
2022/12/18 13:51:03;;;;;;;16.73;11.70;;;;;;;;;;5112118;28;20414;-72
2022/12/18 13:53:33;;;;;;;18.47;11.17;;;;;;;;;;5095506;28;20499;-71
2022/12/18 13:55:59;;;;;;;17.57;12.07;;;;;;;;;;5112742;28;20471;-71
2022/12/18 13:58:25;;;;;;;17.40;12.20;;;;;;;;;;5099939;28;20443;-70
2022/12/18 14:00:51;;;;;;;17.03;12.43;;;;;;;;;;5098315;28;20177;-71
2022/12/18 14:03:19;;;;;;;18.10;12.03;;;;;;;;;;5078454;28;20250;-70
2022/12/18 14:05:46;;;;;;;17.63;11.10;;;;;;;;;;5079612;28;20181;-70
2022/12/18 14:08:14;;;;;;;16.67;12.00;;;;;;;;;;5080222;28;20545;-70
2022/12/18 14:10:44;;;;;;;16.73;11.80;;;;;;;;;;5097896;28;20954;-71
2022/12/18 14:13:11;;;;;;;17.50;10.23;;;;;;;;;;5098887;28;20772;-70
2022/12/18 14:15:41;;;;;;;18.83;13.00;;;;;;;;;;5099636;28;20896;-68
2022/12/18 14:18:19;;;;;;;20.17;13.10;;;;;;;;;;5082228;28;20429;-70
2022/12/18 14:20:45;;;;;;;18.90;13.30;;;;;;;;;;5079297;28;20399;-70
2022/12/18 14:23:30;;;;;;;16.23;11.87;;;;;;;;;;5095944;28;20907;-70
2022/12/18 14:25:56;;;;;;;21.37;12.47;;;;;;;;;;5096166;28;20403;-70
2022/12/18 14:28:22;;;;;;;19.50;11.70;;;;;;;;;;5078053;28;20447;-70
2022/12/18 14:30:48;;;;;;;16.47;11.33;;;;;;;;;;5096969;28;20196;-70
2022/12/18 14:33:19;;;;;;;18.07;12.47;;;;;;;;;;5096373;28;20485;-70
2022/12/18 14:35:55;;;;;;;21.43;13.20;;;;;;;;;;5097377;28;20935;-70
2022/12/18 14:38:27;;;;;;;19.60;13.20;;;;;;;;;;5096092;28;20466;-70
2022/12/18 14:40:58;;;;;;;19.53;12.83;;;;;;;;;;5096273;28;20419;-70
2022/12/18 14:43:24;;;;;;;19.57;13.13;;;;;;;;;;5096032;28;20442;-70